createdAt,value
2023-01-11T00:02:37.311Z,70.58
2023-01-11T00:07:40.877Z,70.83
2023-01-11T00:12:42.577Z,70.96
2023-01-11T00:17:44.380Z,71.33
2023-01-11T00:22:46.198Z,70.98
2023-01-11T00:27:49.464Z,71.47
2023-01-11T00:33:00.688Z,71.23
2023-01-11T00:38:02.583Z,71.86
2023-01-11T00:43:23.047Z,72.66
2023-01-11T00:48:24.781Z,73.50
2023-01-11T00:53:26.479Z,74.46
2023-01-11T00:58:28.112Z,75.24
2023-01-11T01:03:29.800Z,76.13
2023-01-11T01:08:31.615Z,76.01
2023-01-11T01:13:51.946Z,76.33
2023-01-11T01:18:57.006Z,76.71
2023-01-11T01:23:58.679Z,77.04
2023-01-11T01:29:00.748Z,77.12
2023-01-11T01:34:02.412Z,77.50
2023-01-11T01:39:06.018Z,77.55
2023-01-11T01:44:45.193Z,77.80
2023-01-11T01:49:47.284Z,77.93
2023-01-11T01:54:49.523Z,77.86
2023-01-11T01:59:52.840Z,77.57
2023-01-11T02:04:56.732Z,77.81
2023-01-11T02:10:19.178Z,78.27
2023-01-11T02:15:22.374Z,78.81
2023-01-11T02:20:52.797Z,78.99
2023-01-11T02:26:01.589Z,79.05
2023-01-11T02:31:21.095Z,79.21
2023-01-11T02:36:44.498Z,79.63
2023-01-11T02:42:30.884Z,79.77
2023-01-11T02:48:02.061Z,79.89
2023-01-11T02:53:28.438Z,79.75
2023-01-11T02:58:36.387Z,79.69
2023-01-11T03:03:38.065Z,79.54
2023-01-11T03:09:13.791Z,79.42
2023-01-11T03:14:44.832Z,79.50
2023-01-11T03:19:51.679Z,79.45
2023-01-11T03:25:15.193Z,79.64
2023-01-11T03:30:21.717Z,79.46
2023-01-11T03:35:52.585Z,79.61
2023-01-11T03:41:05.443Z,79.93
2023-01-11T03:46:13.183Z,79.90
2023-01-11T03:51:19.034Z,80.07
2023-01-11T03:56:25.432Z,79.97
2023-01-11T04:01:27.431Z,79.95
2023-01-11T04:06:30.451Z,80.19
2023-01-11T04:11:32.173Z,80.27
2023-01-11T04:16:34.127Z,80.34
2023-01-11T04:21:35.834Z,80.23
2023-01-11T04:26:37.549Z,80.61
2023-01-11T04:31:39.368Z,80.79
2023-01-11T04:36:41.831Z,80.76
2023-01-11T04:42:01.904Z,80.64
2023-01-11T04:47:03.547Z,80.61
2023-01-11T04:52:05.494Z,80.95
2023-01-11T04:57:10.760Z,80.98
2023-01-11T05:02:13.695Z,81.16
2023-01-11T05:07:15.397Z,81.39
2023-01-11T05:12:16.981Z,81.53
2023-01-11T05:17:18.707Z,81.51
2023-01-11T05:22:20.358Z,81.45
2023-01-11T05:27:22.213Z,81.30
2023-01-11T05:32:23.872Z,81.52
2023-01-11T05:37:25.554Z,81.46
2023-01-11T05:42:27.265Z,81.53
2023-01-11T05:47:29.276Z,81.70
2023-01-11T05:52:31.019Z,81.82
2023-01-11T05:57:32.749Z,81.97
2023-01-11T06:02:35.372Z,82.15
2023-01-11T06:07:37.432Z,82.32
2023-01-11T06:12:39.116Z,82.64
2023-01-11T06:17:41.066Z,83.17
2023-01-11T06:22:42.911Z,84.16
2023-01-11T06:27:44.548Z,83.94
2023-01-11T06:32:46.494Z,83.58
2023-01-11T06:37:48.319Z,82.50
2023-01-11T06:42:50.091Z,81.90
2023-01-11T06:47:52.151Z,81.95
2023-01-11T06:52:59.090Z,82.49
2023-01-11T06:58:00.885Z,80.80
2023-01-11T07:03:06.608Z,80.48
2023-01-11T07:08:08.371Z,80.37
2023-01-11T07:13:12.061Z,80.46
2023-01-11T07:18:14.616Z,81.02
2023-01-11T07:23:16.387Z,81.58
2023-01-11T07:28:18.189Z,82.10
2023-01-11T07:33:20.043Z,81.93
2023-01-11T07:38:22.438Z,82.22
2023-01-11T07:43:24.435Z,82.34
2023-01-11T07:48:27.165Z,81.94
2023-01-11T07:53:29.115Z,82.27
2023-01-11T07:58:32.535Z,82.43
2023-01-11T08:03:34.405Z,82.30
2023-01-11T08:08:36.440Z,82.97
2023-01-11T08:13:57.382Z,82.71
2023-01-11T08:18:59.177Z,83.41
2023-01-11T08:24:00.992Z,83.54
2023-01-11T08:29:03.993Z,83.58
2023-01-11T08:34:05.964Z,83.92
2023-01-11T08:39:08.596Z,84.35
2023-01-11T08:44:11.898Z,84.40
2023-01-11T08:49:13.769Z,84.23
2023-01-11T08:54:17.544Z,84.27
2023-01-11T08:59:19.999Z,84.07
2023-01-11T09:04:25.818Z,83.60
2023-01-11T09:09:27.988Z,83.49
2023-01-11T09:14:29.675Z,82.81
2023-01-11T09:19:33.488Z,82.38
2023-01-11T09:24:35.388Z,81.91
2023-01-11T09:29:37.837Z,81.69
2023-01-11T09:34:41.107Z,81.28
2023-01-11T09:39:43.142Z,80.67
2023-01-11T09:44:51.959Z,80.54
2023-01-11T09:49:58.522Z,80.36
2023-01-11T09:55:01.281Z,80.14
2023-01-11T10:00:10.501Z,80.21
2023-01-11T10:05:50.014Z,79.96
2023-01-11T10:18:27.585Z,78.07
2023-01-11T10:22:19.476Z,77.93
2023-01-11T10:27:32.574Z,77.25
2023-01-11T10:33:01.971Z,77.18
2023-01-11T10:38:32.276Z,76.60
2023-01-11T10:43:41.456Z,76.37
2023-01-11T10:48:44.888Z,76.19
2023-01-11T10:53:49.996Z,75.16
2023-01-11T10:59:06.135Z,73.34
2023-01-11T11:04:26.987Z,73.22
2023-01-11T11:09:52.118Z,72.63
2023-01-11T11:15:03.706Z,71.89
2023-01-11T11:20:17.363Z,72.03
2023-01-11T11:25:23.856Z,72.48
2023-01-11T11:30:30.235Z,72.09
2023-01-11T11:35:34.014Z,71.99
2023-01-11T11:40:37.865Z,71.96
2023-01-11T11:45:59.131Z,71.42
2023-01-11T11:51:04.132Z,71.66
2023-01-11T11:56:08.676Z,71.29
2023-01-11T12:01:25.664Z,71.15
2023-01-11T12:06:29.024Z,70.66
2023-01-11T12:11:35.430Z,70.38
2023-01-11T12:16:40.632Z,71.41
2023-01-11T12:21:42.322Z,72.82
2023-01-11T12:26:58.707Z,73.74
2023-01-11T12:32:38.477Z,74.59
2023-01-11T12:38:05.056Z,75.42
2023-01-11T12:43:22.600Z,75.54
2023-01-11T12:48:45.665Z,75.55
2023-01-11T12:54:09.347Z,75.36
2023-01-11T12:59:23.532Z,75.07
2023-01-11T13:04:28.365Z,75.17
2023-01-11T13:09:48.720Z,74.74
2023-01-11T13:15:13.932Z,74.38
2023-01-11T13:20:25.519Z,74.34
2023-01-11T13:25:30.563Z,75.45
2023-01-11T13:30:33.018Z,76.59
2023-01-11T13:35:43.077Z,77.29
2023-01-11T13:40:49.765Z,77.85
2023-01-11T13:46:03.765Z,78.32
2023-01-11T13:51:21.682Z,78.63
2023-01-11T13:56:39.760Z,78.72
2023-01-11T14:01:53.857Z,78.97
2023-01-11T14:07:32.226Z,78.77
2023-01-11T14:13:53.474Z,78.44
2023-01-11T14:19:16.141Z,78.42
2023-01-11T14:24:19.905Z,78.68
2023-01-11T14:29:42.762Z,79.82
2023-01-11T14:35:18.059Z,80.65
2023-01-11T14:40:35.022Z,81.81
2023-01-11T14:46:03.339Z,82.72
2023-01-11T14:51:32.479Z,83.80
2023-01-11T14:56:49.071Z,84.55
2023-01-11T15:02:02.947Z,85.25
2023-01-11T15:07:25.283Z,86.21
2023-01-11T15:12:39.198Z,87.25
2023-01-11T15:18:00.487Z,88.37
2023-01-11T15:23:05.026Z,89.41
2023-01-11T15:28:34.080Z,90.12
2023-01-11T15:33:47.576Z,90.89
2023-01-11T15:39:05.637Z,92.05
2023-01-11T15:44:16.220Z,93.08
2023-01-11T15:49:38.654Z,94.43
2023-01-11T15:55:00.602Z,94.92
2023-01-11T16:00:17.176Z,95.64
2023-01-11T16:05:23.623Z,96.07
2023-01-11T16:10:43.804Z,96.58
2023-01-11T16:16:07.043Z,96.75
2023-01-11T16:21:23.435Z,97.22
2023-01-11T16:26:25.683Z,97.49
2023-01-11T16:31:53.463Z,98.45
2023-01-11T16:36:57.599Z,100.00
2023-01-11T16:42:05.623Z,99.83
2023-01-11T16:47:18.397Z,100.00
2023-01-11T16:52:35.722Z,99.82
2023-01-11T16:57:43.946Z,99.24
2023-01-11T17:02:48.825Z,98.74
2023-01-11T17:07:50.969Z,98.00
2023-01-11T17:13:04.631Z,97.49
2023-01-11T17:18:06.395Z,97.38
2023-01-11T17:23:15.872Z,97.07
2023-01-11T17:28:19.812Z,97.56
2023-01-11T17:33:32.643Z,97.55
2023-01-11T17:38:34.464Z,97.92
2023-01-11T17:43:55.990Z,98.33
2023-01-11T17:48:59.616Z,98.70
2023-01-11T17:54:01.351Z,98.82
2023-01-11T17:59:26.045Z,98.56
2023-01-11T18:04:28.492Z,98.95
2023-01-11T18:09:32.748Z,98.74
2023-01-11T18:14:56.734Z,98.63
2023-01-11T18:19:59.843Z,98.51
2023-01-11T18:25:14.592Z,98.22
2023-01-11T18:30:31.398Z,98.30
2023-01-11T18:35:42.651Z,98.27
2023-01-11T18:40:45.841Z,98.10
2023-01-11T18:45:47.621Z,98.42
2023-01-11T18:50:51.917Z,98.45
2023-01-11T18:55:53.812Z,98.24
2023-01-11T19:00:55.490Z,98.15
2023-01-11T19:05:57.200Z,97.99
2023-01-11T19:10:58.937Z,98.24
2023-01-11T19:16:01.774Z,97.69
2023-01-11T19:21:09.258Z,98.02
2023-01-11T19:26:10.965Z,97.85
2023-01-11T19:31:12.761Z,97.51
2023-01-11T19:36:14.454Z,97.34
2023-01-11T19:41:16.788Z,96.79
2023-01-11T19:46:30.579Z,96.51
2023-01-11T19:51:33.751Z,96.44
2023-01-11T19:56:35.450Z,96.18
2023-01-11T20:01:38.816Z,96.04
2023-01-11T20:06:41.894Z,95.56
2023-01-11T20:11:44.126Z,95.16
2023-01-11T20:16:46.437Z,94.79
2023-01-11T20:21:48.173Z,94.31
2023-01-11T20:26:49.828Z,94.19
2023-01-11T20:31:51.601Z,93.92
2023-01-11T20:36:53.332Z,93.78
2023-01-11T20:41:55.292Z,93.39
2023-01-11T20:46:57.905Z,93.16
2023-01-11T20:51:59.671Z,92.67
2023-01-11T20:57:05.373Z,92.67
2023-01-11T21:02:07.645Z,92.86
2023-01-11T21:07:09.823Z,92.75
2023-01-11T21:12:11.463Z,92.76
2023-01-11T21:17:13.243Z,92.45
2023-01-11T21:22:15.836Z,92.79
2023-01-11T21:27:17.663Z,92.51
2023-01-11T21:32:19.361Z,92.74
2023-01-11T21:37:24.455Z,93.03
2023-01-11T21:42:26.201Z,93.47
2023-01-11T21:47:27.950Z,93.89
2023-01-11T21:52:29.811Z,94.28
2023-01-11T21:57:31.464Z,94.76
2023-01-11T22:02:33.256Z,94.90
2023-01-11T22:07:37.526Z,95.04
2023-01-11T22:12:39.281Z,95.09
2023-01-11T22:17:41.253Z,95.26
2023-01-11T22:22:43.580Z,95.01
2023-01-11T22:27:45.178Z,94.99
2023-01-11T22:32:47.841Z,94.46
2023-01-11T22:37:49.491Z,92.04
2023-01-11T22:42:51.264Z,89.70
2023-01-11T22:47:52.921Z,89.04
2023-01-11T22:52:54.564Z,89.20
2023-01-11T22:57:56.450Z,89.15
2023-01-11T23:02:58.372Z,89.74
2023-01-11T23:08:00.245Z,89.73
2023-01-11T23:13:20.485Z,89.31
2023-01-11T23:18:22.300Z,89.85
2023-01-11T23:23:27.174Z,90.04
2023-01-11T23:28:30.635Z,90.33
2023-01-11T23:33:32.259Z,91.27
2023-01-11T23:38:33.908Z,91.91
2023-01-11T23:43:38.334Z,92.42
2023-01-11T23:48:40.082Z,92.73
2023-01-11T23:53:42.014Z,92.51
2023-01-11T23:58:43.737Z,92.07
